createdAt,value
2023-01-21T01:22:12.280Z,35.80
2023-01-21T01:24:38.871Z,36.60
2023-01-21T01:27:05.716Z,39.70
2023-01-21T01:29:32.249Z,40.80
2023-01-21T01:31:58.788Z,39.10
2023-01-21T01:34:25.308Z,37.10
2023-01-21T01:36:52.214Z,40.80
2023-01-21T01:39:18.849Z,38.00
2023-01-21T01:41:45.475Z,36.50
2023-01-21T01:45:12.062Z,40.20
2023-01-21T01:48:00.369Z,43.50
2023-01-21T01:50:32.091Z,36.60
2023-01-21T01:53:00.222Z,36.00
2023-01-21T01:55:30.587Z,39.20
2023-01-21T01:57:57.134Z,39.40
2023-01-21T02:00:24.463Z,39.90
2023-01-21T02:03:09.840Z,37.90
2023-01-21T02:05:40.830Z,39.00
2023-01-21T02:08:07.779Z,37.60
2023-01-21T02:10:35.299Z,40.10
2023-01-21T02:13:02.185Z,34.20
2023-01-21T02:15:45.986Z,38.70
2023-01-21T02:18:26.651Z,38.50
2023-01-21T02:21:03.760Z,37.20
2023-01-21T02:23:55.731Z,36.70
2023-01-21T02:26:29.627Z,36.40
2023-01-21T02:29:26.115Z,33.80
2023-01-21T02:32:31.871Z,37.60
2023-01-21T02:37:50.811Z,34.60
2023-01-21T02:40:36.825Z,25.50
2023-01-21T02:43:13.306Z,33.70
2023-01-21T02:45:51.536Z,35.10
2023-01-21T02:48:40.788Z,33.10
2023-01-21T02:51:07.673Z,35.70
2023-01-21T02:53:35.133Z,32.10
2023-01-21T02:56:10.389Z,34.90
2023-01-21T02:58:39.824Z,36.30
2023-01-21T03:01:14.997Z,36.00
2023-01-21T03:03:46.363Z,31.40
2023-01-21T03:06:31.669Z,34.70
2023-01-21T03:09:07.043Z,30.50
2023-01-21T03:11:35.917Z,32.30
2023-01-21T03:14:47.692Z,32.40
2023-01-21T03:17:20.610Z,31.20
2023-01-21T03:20:01.887Z,32.70
2023-01-21T03:22:30.661Z,32.00
2023-01-21T03:24:57.338Z,30.00
2023-01-21T03:27:24.737Z,32.00
2023-01-21T03:29:57.272Z,30.20
2023-01-21T03:32:23.834Z,31.20
2023-01-21T03:34:51.390Z,30.70
2023-01-21T03:37:28.507Z,29.10
2023-01-21T03:40:10.260Z,33.40
2023-01-21T03:42:36.863Z,31.70
2023-01-21T03:45:06.920Z,30.50
2023-01-21T03:47:37.752Z,30.40
2023-01-21T03:50:13.299Z,31.00
2023-01-21T03:52:41.319Z,30.70
2023-01-21T03:55:08.393Z,32.20
2023-01-21T03:57:35.010Z,30.60
2023-01-21T04:00:03.073Z,28.90
2023-01-21T04:02:33.496Z,29.70
2023-01-21T04:05:03.220Z,30.30
2023-01-21T04:07:31.359Z,28.50
2023-01-21T04:09:57.885Z,27.30
2023-01-21T04:12:26.874Z,26.30
2023-01-21T04:14:54.798Z,28.50
2023-01-21T04:17:21.776Z,28.70
2023-01-21T04:19:48.942Z,29.40
2023-01-21T04:22:16.965Z,26.40
2023-01-21T04:24:43.897Z,26.90
2023-01-21T04:27:10.787Z,25.80
2023-01-21T04:29:38.007Z,25.90
2023-01-21T04:32:04.741Z,27.00
2023-01-21T04:34:31.278Z,26.80
2023-01-21T04:37:01.224Z,29.30
2023-01-21T04:39:28.052Z,26.30
2023-01-21T04:41:54.605Z,25.90
2023-01-21T04:44:21.515Z,24.70
2023-01-21T04:46:49.686Z,27.20
2023-01-21T04:49:16.160Z,24.80
2023-01-21T04:51:44.091Z,26.80
2023-01-21T04:54:11.659Z,27.10
2023-01-21T04:56:38.210Z,26.50
2023-01-21T04:59:04.732Z,26.10
2023-01-21T05:01:32.050Z,23.90
2023-01-21T05:04:00.809Z,25.40
2023-01-21T05:06:27.452Z,26.60
2023-01-21T05:08:54.214Z,25.30
2023-01-21T05:11:20.877Z,24.90
2023-01-21T05:13:47.497Z,24.20
2023-01-21T05:16:14.245Z,26.90
2023-01-21T05:18:46.741Z,24.90
2023-01-21T05:21:13.519Z,25.70
2023-01-21T05:23:40.106Z,29.00
2023-01-21T05:26:07.317Z,25.00
2023-01-21T05:28:35.659Z,26.10
2023-01-21T05:31:03.755Z,25.60
2023-01-21T05:33:34.376Z,27.20
2023-01-21T05:36:02.741Z,23.70
2023-01-21T05:38:29.529Z,24.20
2023-01-21T05:40:59.598Z,25.60
2023-01-21T05:43:26.164Z,22.80
2023-01-21T05:45:54.554Z,24.60
2023-01-21T05:48:21.658Z,24.10
2023-01-21T05:50:48.725Z,25.20
2023-01-21T05:53:16.576Z,25.20
2023-01-21T05:55:43.093Z,24.40
2023-01-21T05:58:09.763Z,23.50
2023-01-21T06:00:36.965Z,22.00
2023-01-21T06:03:04.109Z,23.10
2023-01-21T06:05:33.381Z,23.90
2023-01-21T06:08:03.796Z,25.10
2023-01-21T06:10:32.729Z,21.90
2023-01-21T06:12:59.334Z,25.30
2023-01-21T06:15:31.484Z,25.00
2023-01-21T06:18:00.209Z,25.10
2023-01-21T06:20:29.751Z,24.70
2023-01-21T06:22:56.991Z,23.10
2023-01-21T06:25:28.601Z,25.60
2023-01-21T06:27:55.482Z,24.00
2023-01-21T06:30:22.866Z,27.80
2023-01-21T06:32:49.571Z,26.60
2023-01-21T06:35:17.081Z,23.20
2023-01-21T06:37:47.030Z,24.90
2023-01-21T06:40:17.017Z,23.30
2023-01-21T06:42:51.042Z,23.60
2023-01-21T06:45:17.965Z,23.00
2023-01-21T06:47:44.708Z,23.10
2023-01-21T06:50:12.783Z,25.50
2023-01-21T06:52:41.295Z,25.40
2023-01-21T06:55:08.707Z,26.30
2023-01-21T06:57:35.791Z,24.80
2023-01-21T07:00:02.445Z,26.10
2023-01-21T07:02:31.420Z,25.30
2023-01-21T07:04:59.189Z,25.00
2023-01-21T07:07:26.295Z,24.40
2023-01-21T07:09:52.967Z,24.80
2023-01-21T07:12:20.197Z,26.30
2023-01-21T07:14:46.871Z,24.20
2023-01-21T07:17:13.947Z,25.40
2023-01-21T07:19:43.632Z,23.90
2023-01-21T07:22:13.305Z,24.40
2023-01-21T07:24:41.836Z,25.80
2023-01-21T07:27:11.897Z,26.80
2023-01-21T07:29:38.458Z,27.50
2023-01-21T07:32:05.205Z,23.20
2023-01-21T07:34:32.423Z,23.60
2023-01-21T07:36:59.026Z,23.50
2023-01-21T07:39:25.659Z,21.30
2023-01-21T07:41:52.867Z,24.40
2023-01-21T07:44:19.747Z,23.40
2023-01-21T07:46:46.523Z,23.30
2023-01-21T07:49:17.631Z,25.30
2023-01-21T07:51:45.810Z,26.70
2023-01-21T07:54:12.978Z,24.30
2023-01-21T07:56:39.785Z,22.70
2023-01-21T07:59:06.603Z,24.30
2023-01-21T08:01:33.887Z,23.60
2023-01-21T08:04:01.830Z,25.30
2023-01-21T08:06:29.092Z,23.30
2023-01-21T08:08:58.062Z,25.60
2023-01-21T08:11:24.790Z,26.10
2023-01-21T08:13:51.449Z,25.20
2023-01-21T08:24:02.308Z,24.60
2023-01-21T08:26:29.166Z,24.10
2023-01-21T08:28:55.764Z,25.10
2023-01-21T08:31:22.683Z,24.20
2023-01-21T08:33:49.293Z,23.40
2023-01-21T08:36:16.409Z,22.20
2023-01-21T08:38:43.544Z,23.70
2023-01-21T08:41:10.227Z,23.60
2023-01-21T08:43:37.016Z,25.20
2023-01-21T08:46:04.422Z,24.90
2023-01-21T08:48:31.029Z,23.40
2023-01-21T08:50:59.513Z,24.40
2023-01-21T08:53:26.527Z,25.90
2023-01-21T08:55:53.078Z,21.60
2023-01-21T08:58:23.220Z,23.00
2023-01-21T09:00:51.009Z,23.40
2023-01-21T09:03:19.278Z,24.40
2023-01-21T09:05:46.812Z,26.00
2023-01-21T09:08:14.273Z,22.90
2023-01-21T09:10:59.432Z,24.80
2023-01-21T09:13:29.219Z,25.40
2023-01-21T09:15:56.352Z,25.60
2023-01-21T09:18:23.160Z,22.80
2023-01-21T09:20:49.895Z,25.70
2023-01-21T09:23:25.666Z,23.60
2023-01-21T09:25:53.534Z,25.90
2023-01-21T09:28:21.137Z,22.80
2023-01-21T09:30:48.056Z,23.60
2023-01-21T09:33:14.947Z,26.30
2023-01-21T09:35:41.676Z,25.50
2023-01-21T09:38:08.230Z,25.90
2023-01-21T09:40:35.033Z,27.80
2023-01-21T09:43:02.442Z,27.50
2023-01-21T09:45:29.104Z,27.30
2023-01-21T09:47:56.183Z,23.50
2023-01-21T09:50:23.957Z,24.80
2023-01-21T09:52:52.179Z,26.80
2023-01-21T09:55:47.046Z,24.00
2023-01-21T09:58:32.359Z,25.00
2023-01-21T10:01:01.921Z,25.20
2023-01-21T10:03:33.604Z,24.70
2023-01-21T10:06:18.954Z,26.20
2023-01-21T10:09:01.093Z,24.00
2023-01-21T10:11:46.364Z,27.60
2023-01-21T10:16:45.768Z,27.20
2023-01-21T10:19:14.759Z,24.90
2023-01-21T10:21:53.999Z,25.30
2023-01-21T10:24:23.241Z,25.40
2023-01-21T10:26:50.479Z,24.80
2023-01-21T10:29:19.771Z,25.60
2023-01-21T10:32:07.232Z,28.20
2023-01-21T10:34:38.058Z,26.70
2023-01-21T10:37:38.463Z,26.00
2023-01-21T10:40:17.503Z,28.90
2023-01-21T10:42:58.093Z,27.40
2023-01-21T10:45:37.264Z,27.90
2023-01-21T10:48:23.332Z,25.10
2023-01-21T10:51:06.092Z,27.30
2023-01-21T10:53:47.988Z,26.20
2023-01-21T10:56:26.212Z,27.20
2023-01-21T10:59:01.080Z,25.00
2023-01-21T11:01:29.892Z,24.80
2023-01-21T11:04:01.217Z,26.00
2023-01-21T11:06:29.078Z,26.50
2023-01-21T11:08:58.382Z,28.40
2023-01-21T11:11:35.911Z,29.20
2023-01-21T11:14:03.416Z,28.50
2023-01-21T11:16:55.725Z,28.10
2023-01-21T11:19:32.947Z,26.50
2023-01-21T11:22:06.316Z,24.90
2023-01-21T11:24:42.806Z,27.00
2023-01-21T11:27:34.966Z,25.80
2023-01-21T11:30:02.203Z,27.30
2023-01-21T11:32:29.726Z,27.60
2023-01-21T11:35:10.679Z,27.40
2023-01-21T11:37:38.292Z,26.50
2023-01-21T11:40:06.859Z,25.20
2023-01-21T11:42:33.676Z,29.00
2023-01-21T11:45:09.031Z,29.30
2023-01-21T11:47:38.940Z,30.20
2023-01-21T11:50:35.326Z,30.20
2023-01-21T11:53:09.819Z,29.00
2023-01-21T11:55:40.528Z,27.40
2023-01-21T11:58:16.470Z,26.90
2023-01-21T12:00:45.085Z,24.30
2023-01-21T12:03:14.470Z,25.10
2023-01-21T12:05:43.158Z,25.90
2023-01-21T12:08:25.858Z,26.70
2023-01-21T12:10:57.193Z,28.90
2023-01-21T12:13:49.596Z,30.60
2023-01-21T12:16:25.628Z,29.30
2023-01-21T12:19:07.837Z,27.20
2023-01-21T12:22:12.707Z,31.80
2023-01-21T12:25:01.273Z,28.70
2023-01-21T12:27:41.166Z,24.60
2023-01-21T12:30:08.156Z,30.00
2023-01-21T12:32:39.565Z,29.30
2023-01-21T12:35:23.787Z,31.60
2023-01-21T12:38:28.242Z,32.40
2023-01-21T12:40:57.732Z,23.00
2023-01-21T12:43:27.921Z,27.90
2023-01-21T12:46:10.816Z,30.80
2023-01-21T12:48:48.316Z,31.70
2023-01-21T12:51:19.311Z,27.50
2023-01-21T12:54:12.241Z,28.10
2023-01-21T12:56:42.036Z,32.50
2023-01-21T12:59:13.562Z,29.80
2023-01-21T13:02:05.816Z,29.60
2023-01-21T13:05:01.320Z,25.80
2023-01-21T13:07:32.324Z,27.90
2023-01-21T13:10:08.648Z,24.80
2023-01-21T13:12:35.684Z,30.10
2023-01-21T13:15:22.201Z,30.00
2023-01-21T13:17:55.768Z,25.60
2023-01-21T13:20:27.989Z,23.10
2023-01-21T13:23:16.468Z,22.20
2023-01-21T13:26:24.600Z,22.30
2023-01-21T13:28:57.885Z,21.10
2023-01-21T13:31:35.523Z,25.80
2023-01-21T13:34:21.829Z,23.50
2023-01-21T13:37:06.869Z,24.20
2023-01-21T13:39:45.236Z,26.40
2023-01-21T13:42:30.814Z,25.20
2023-01-21T13:45:12.234Z,25.50
2023-01-21T13:48:02.915Z,25.10
2023-01-21T13:50:54.699Z,24.70
2023-01-21T13:53:48.622Z,24.50
2023-01-21T13:56:59.566Z,23.10
2023-01-21T14:00:04.815Z,24.60
2023-01-21T14:03:02.816Z,21.10
2023-01-21T14:05:45.936Z,25.50
2023-01-21T14:08:29.859Z,21.30
2023-01-21T14:13:50.829Z,20.50
2023-01-21T14:16:45.359Z,23.20
2023-01-21T14:19:36.525Z,23.90
2023-01-21T14:22:27.993Z,22.10
2023-01-21T14:25:08.092Z,22.30
2023-01-21T14:27:46.201Z,25.10
2023-01-21T14:30:21.007Z,22.40
2023-01-21T14:32:55.855Z,22.00
2023-01-21T14:35:29.746Z,24.40
2023-01-21T14:37:59.523Z,22.30
2023-01-21T14:40:31.872Z,24.90
2023-01-21T14:42:59.378Z,22.70
2023-01-21T14:45:55.244Z,20.30
2023-01-21T14:48:30.119Z,21.00
2023-01-21T14:51:06.126Z,19.90
2023-01-21T14:53:50.924Z,19.70
2023-01-21T14:56:29.133Z,17.60
2023-01-21T14:59:01.639Z,16.00
2023-01-21T15:01:38.084Z,19.00
2023-01-21T15:04:30.298Z,17.30
2023-01-21T15:07:02.122Z,17.80
2023-01-21T15:09:31.586Z,18.20
2023-01-21T15:12:13.451Z,17.50
2023-01-21T15:14:41.872Z,17.00
2023-01-21T15:17:43.930Z,14.90
2023-01-21T15:20:44.451Z,16.30
2023-01-21T15:23:28.774Z,13.80
2023-01-21T15:26:04.895Z,15.00
2023-01-21T15:28:43.586Z,16.60
2023-01-21T15:31:13.088Z,16.10
2023-01-21T15:33:43.575Z,15.80
2023-01-21T15:36:20.483Z,16.50
2023-01-21T15:38:51.256Z,18.80
2023-01-21T15:41:32.109Z,18.40
2023-01-21T15:44:25.113Z,19.10
2023-01-21T15:46:51.814Z,16.40
2023-01-21T15:49:25.274Z,19.10
2023-01-21T15:52:00.830Z,20.10
2023-01-21T15:54:33.594Z,19.60
2023-01-21T15:57:23.508Z,21.00
2023-01-21T15:59:56.759Z,19.70
2023-01-21T16:02:48.154Z,14.90
2023-01-21T16:05:24.395Z,20.20
2023-01-21T16:08:01.351Z,20.90
2023-01-21T16:10:37.983Z,19.30
2023-01-21T16:13:26.595Z,20.30
2023-01-21T16:16:35.141Z,19.40
2023-01-21T16:19:10.742Z,17.90
2023-01-21T16:21:40.240Z,19.90
2023-01-21T16:24:10.503Z,20.70
2023-01-21T16:26:40.200Z,21.10
2023-01-21T16:29:13.173Z,18.80
2023-01-21T16:31:59.625Z,19.40
2023-01-21T16:34:43.064Z,18.70
2023-01-21T16:37:20.625Z,19.90
2023-01-21T16:39:47.694Z,21.80
2023-01-21T16:42:22.450Z,18.70
2023-01-21T16:44:49.193Z,19.50
2023-01-21T16:47:32.456Z,20.70
2023-01-21T16:49:59.661Z,20.80
2023-01-21T16:52:26.723Z,21.20
2023-01-21T16:54:56.518Z,20.20
2023-01-21T16:57:31.624Z,19.80
2023-01-21T16:59:58.821Z,19.00
2023-01-21T17:02:28.491Z,18.40
2023-01-21T17:04:59.621Z,20.20
2023-01-21T17:07:41.321Z,18.60
2023-01-21T17:10:14.941Z,19.80
2023-01-21T17:13:04.653Z,18.20
2023-01-21T17:15:38.700Z,18.90
2023-01-21T17:18:07.493Z,19.70
2023-01-21T17:20:45.828Z,19.60
2023-01-21T17:23:19.137Z,18.00
2023-01-21T17:25:53.666Z,20.00
2023-01-21T17:31:16.562Z,17.10
2023-01-21T17:33:43.712Z,21.10
2023-01-21T17:36:15.425Z,19.70
2023-01-21T17:38:43.944Z,19.80
2023-01-21T17:41:32.121Z,17.70
2023-01-21T17:44:00.426Z,19.40
2023-01-21T17:46:27.412Z,18.50
2023-01-21T17:49:05.543Z,19.30
2023-01-21T17:51:32.375Z,19.20
2023-01-21T17:54:04.065Z,21.00
2023-01-21T17:56:37.052Z,21.80
2023-01-21T17:59:03.908Z,22.10
2023-01-21T18:01:30.839Z,19.00
2023-01-21T18:03:58.077Z,21.50
2023-01-21T18:06:28.630Z,20.50
2023-01-21T18:08:56.489Z,22.80
2023-01-21T18:11:32.030Z,20.80
2023-01-21T18:14:00.762Z,22.40
2023-01-21T18:16:27.668Z,24.30
2023-01-21T18:18:54.850Z,23.60
2023-01-21T18:21:21.892Z,22.70
2023-01-21T18:23:49.787Z,23.50
2023-01-21T18:26:20.462Z,22.20
2023-01-21T18:28:50.087Z,24.50
2023-01-21T18:31:20.349Z,22.80
2023-01-21T18:33:47.392Z,25.70
2023-01-21T18:36:14.279Z,21.20
2023-01-21T18:38:41.109Z,19.70
2023-01-21T18:41:08.974Z,23.10
2023-01-21T18:43:35.863Z,22.90
2023-01-21T18:46:02.689Z,22.90
2023-01-21T18:48:29.966Z,21.70
2023-01-21T18:50:56.771Z,22.40
2023-01-21T18:53:24.034Z,24.90
2023-01-21T18:55:51.241Z,21.90
2023-01-21T18:58:18.023Z,23.10
2023-01-21T19:00:44.768Z,23.50
2023-01-21T19:03:15.174Z,24.10
2023-01-21T19:05:44.296Z,21.80
2023-01-21T19:08:12.708Z,22.80
2023-01-21T19:10:39.569Z,22.60
2023-01-21T19:13:06.291Z,23.10
2023-01-21T19:15:33.062Z,23.50
2023-01-21T19:18:02.701Z,24.40
2023-01-21T19:20:29.660Z,21.00
2023-01-21T19:22:56.724Z,24.00
2023-01-21T19:25:27.361Z,21.80
2023-01-21T19:27:56.211Z,23.00
2023-01-21T19:30:30.724Z,21.90
2023-01-21T19:32:58.202Z,19.90
2023-01-21T19:35:33.480Z,25.70
2023-01-21T19:38:00.411Z,23.20
2023-01-21T19:40:28.014Z,25.50
2023-01-21T19:42:55.037Z,22.80
2023-01-21T19:45:22.278Z,24.10
2023-01-21T19:47:49.617Z,24.60
2023-01-21T19:50:24.509Z,23.20
2023-01-21T19:52:51.940Z,22.90
2023-01-21T19:55:20.306Z,25.30
2023-01-21T19:57:47.072Z,26.20
2023-01-21T20:00:21.085Z,25.10
2023-01-21T20:02:50.802Z,22.60
2023-01-21T20:05:17.822Z,22.60
2023-01-21T20:07:45.799Z,21.00
2023-01-21T20:10:26.771Z,21.80
2023-01-21T20:12:55.027Z,20.30
2023-01-21T20:15:32.072Z,20.30
2023-01-21T20:17:59.924Z,21.50
2023-01-21T20:20:29.085Z,22.50
2023-01-21T20:22:55.861Z,17.40
2023-01-21T20:25:24.176Z,17.30
2023-01-21T20:27:55.493Z,22.00
2023-01-21T20:30:24.289Z,20.00
2023-01-21T20:32:51.086Z,22.50
2023-01-21T20:35:19.761Z,20.30
2023-01-21T20:37:51.368Z,22.00
2023-01-21T20:40:23.310Z,22.40
2023-01-21T20:42:50.868Z,21.30
2023-01-21T20:45:18.781Z,24.30
2023-01-21T20:47:50.048Z,22.50
2023-01-21T20:50:19.353Z,23.20
2023-01-21T20:52:46.868Z,25.30
2023-01-21T20:55:13.719Z,25.80
2023-01-21T20:57:41.051Z,23.50
2023-01-21T21:00:18.248Z,21.90
2023-01-21T21:02:45.358Z,26.30
2023-01-21T21:05:13.474Z,25.70
2023-01-21T21:07:40.391Z,22.40
2023-01-21T21:10:12.267Z,22.90
2023-01-21T21:12:39.064Z,23.00
2023-01-21T21:15:06.569Z,25.70
2023-01-21T21:17:34.948Z,25.40
2023-01-21T21:20:01.793Z,24.70
2023-01-21T21:22:28.577Z,22.30
2023-01-21T21:24:55.292Z,22.80
2023-01-21T21:27:25.116Z,21.00
2023-01-21T21:29:56.239Z,22.40
2023-01-21T21:32:22.952Z,21.70
2023-01-21T21:34:51.323Z,22.50
2023-01-21T21:37:18.142Z,23.10
2023-01-21T21:39:44.833Z,21.20
2023-01-21T21:42:30.797Z,20.00
2023-01-21T21:44:58.856Z,20.40
2023-01-21T21:47:44.489Z,19.00
2023-01-21T21:50:11.195Z,21.20
2023-01-21T21:52:37.899Z,23.40
2023-01-21T21:55:05.253Z,23.00
2023-01-21T21:57:32.282Z,23.10
2023-01-21T22:00:00.850Z,23.00
2023-01-21T22:02:27.571Z,21.00
2023-01-21T22:04:55.069Z,21.50
2023-01-21T22:07:21.782Z,23.80
2023-01-21T22:09:48.530Z,21.90
2023-01-21T22:12:15.280Z,22.20
2023-01-21T22:14:42.073Z,23.70
2023-01-21T22:17:09.160Z,25.60
2023-01-21T22:19:37.732Z,25.30
2023-01-21T22:22:04.653Z,22.90
2023-01-21T22:24:31.361Z,25.40
2023-01-21T22:26:58.058Z,24.00
2023-01-21T22:29:24.774Z,28.10
2023-01-21T22:33:26.928Z,25.40
2023-01-21T22:35:53.730Z,24.00
2023-01-21T22:38:20.468Z,24.60
2023-01-21T22:40:54.185Z,26.60
2023-01-21T22:43:21.141Z,25.80
2023-01-21T22:45:48.469Z,24.40
2023-01-21T22:48:15.507Z,21.50
2023-01-21T22:50:44.449Z,26.10
2023-01-21T22:53:12.174Z,27.00
2023-01-21T22:55:39.052Z,23.90
2023-01-21T22:58:06.159Z,24.90
2023-01-21T23:00:40.456Z,26.10
2023-01-21T23:03:07.719Z,26.20
2023-01-21T23:05:35.175Z,26.10
2023-01-21T23:08:02.112Z,26.10
2023-01-21T23:10:28.998Z,24.20
2023-01-21T23:12:55.743Z,25.10
2023-01-21T23:15:22.907Z,27.70
2023-01-21T23:17:50.376Z,29.80
2023-01-21T23:20:17.794Z,27.60
2023-01-21T23:22:44.910Z,26.40
2023-01-21T23:25:12.771Z,27.60
2023-01-21T23:27:39.511Z,27.00
2023-01-21T23:30:07.743Z,27.30
2023-01-21T23:32:34.434Z,28.20
2023-01-21T23:35:01.118Z,27.20
2023-01-21T23:37:27.924Z,24.50
2023-01-21T23:39:54.724Z,26.60
2023-01-21T23:42:23.693Z,27.00
2023-01-21T23:44:51.116Z,25.00
2023-01-21T23:47:18.562Z,29.70
2023-01-21T23:49:45.276Z,25.30
2023-01-21T23:52:12.651Z,24.50
2023-01-21T23:54:40.483Z,28.00
2023-01-21T23:57:07.551Z,25.70
2023-01-21T23:59:35.593Z,25.20
